createdAt,value
2018-08-10T00:00:12.471Z,100854.52
2018-08-10T00:01:17.971Z,100860.77
2018-08-10T00:02:23.477Z,100856.41
2018-08-10T00:03:29.000Z,100858.11
2018-08-10T00:04:34.584Z,100857.64
2018-08-10T00:05:41.321Z,100862.82
2018-08-10T00:06:46.834Z,100859.91
2018-08-10T00:07:52.320Z,100859.01
2018-08-10T00:08:57.796Z,100862.61
2018-08-10T00:10:03.504Z,100865.49
2018-08-10T00:11:09.393Z,100870.09
2018-08-10T00:12:14.872Z,100875.20
2018-08-10T00:13:20.428Z,100872.30
2018-08-10T00:14:26.018Z,100875.86
2018-08-10T00:15:31.673Z,100879.62
2018-08-10T00:16:37.274Z,100884.41
2018-08-10T00:17:42.846Z,100886.79
2018-08-10T00:18:48.409Z,100899.28
2018-08-10T00:19:53.864Z,100909.22
2018-08-10T00:20:59.450Z,100919.59
2018-08-10T00:22:05.080Z,100924.45
2018-08-10T00:23:10.881Z,100936.45
2018-08-10T00:24:16.408Z,100927.14
2018-08-10T00:25:22.066Z,100936.28
2018-08-10T00:26:27.605Z,100932.92
2018-08-10T00:27:33.114Z,100934.42
2018-08-10T00:28:38.652Z,100925.87
2018-08-10T00:29:44.133Z,100942.04
2018-08-10T00:30:49.644Z,100941.51
2018-08-10T00:31:55.184Z,100944.56
2018-08-10T00:33:00.813Z,100946.82
2018-08-10T00:34:06.344Z,100956.08
2018-08-10T00:35:11.857Z,100951.77
2018-08-10T00:36:17.344Z,100952.47
2018-08-10T00:37:22.869Z,100963.72
2018-08-10T00:38:28.326Z,100964.38
2018-08-10T00:39:34.086Z,100973.27
2018-08-10T00:40:39.522Z,100968.22
2018-08-10T00:41:45.588Z,100967.98
2018-08-10T00:42:51.608Z,100962.68
2018-08-10T00:43:57.168Z,100959.16
2018-08-10T00:45:02.685Z,100963.14
2018-08-10T00:46:08.237Z,100960.77
2018-08-10T00:47:13.761Z,100948.94
2018-08-10T00:48:19.377Z,100939.41
2018-08-10T00:49:25.352Z,100959.35
2018-08-10T00:50:30.847Z,100960.18
2018-08-10T00:51:37.162Z,100970.47
2018-08-10T00:52:43.176Z,100973.05
2018-08-10T00:53:48.704Z,100977.99
2018-08-10T00:54:54.240Z,100981.75
2018-08-10T00:56:00.110Z,101001.52
2018-08-10T00:57:05.768Z,101005.56
2018-08-10T00:58:11.309Z,101016.16
2018-08-10T00:59:16.764Z,101019.31
2018-08-10T01:00:24.089Z,101028.44
2018-08-10T01:01:29.982Z,101030.26
2018-08-10T01:02:36.159Z,101028.44
2018-08-10T01:03:41.620Z,101035.15
2018-08-10T01:04:47.091Z,101038.27
2018-08-10T01:05:52.622Z,101037.73
2018-08-10T01:06:58.558Z,101044.97
2018-08-10T01:08:04.199Z,101042.69
2018-08-10T01:09:12.448Z,101052.39
2018-08-10T01:10:19.529Z,101052.39
2018-08-10T01:11:24.978Z,101057.37
2018-08-10T01:12:30.618Z,101059.84
2018-08-10T01:13:36.185Z,101064.15
2018-08-10T01:14:41.540Z,101058.02
2018-08-10T01:15:47.053Z,101065.51
2018-08-10T01:16:52.598Z,101068.69
2018-08-10T01:17:58.128Z,101071.10
2018-08-10T01:19:04.102Z,101071.87
2018-08-10T01:20:23.336Z,101067.09
2018-08-10T01:21:28.921Z,101072.86
2018-08-10T01:22:38.637Z,101081.33
2018-08-10T01:23:44.153Z,101085.98
2018-08-10T01:24:49.656Z,101085.52
2018-08-10T01:25:55.129Z,101090.50
2018-08-10T01:27:00.685Z,101085.09
2018-08-10T01:28:06.409Z,101088.44
2018-08-10T01:29:11.908Z,101091.28
2018-08-10T01:30:17.469Z,101094.27
2018-08-10T01:31:23.330Z,101096.62
2018-08-10T01:32:28.812Z,101104.91
2018-08-10T01:33:34.543Z,101096.28
2018-08-10T01:34:40.044Z,101104.75
2018-08-10T01:35:45.488Z,101106.57
2018-08-10T01:36:50.896Z,101109.09
2018-08-10T01:37:57.477Z,101106.05
2018-08-10T01:39:03.228Z,101117.10
2018-08-10T01:40:09.647Z,101128.78
2018-08-10T01:41:15.141Z,101118.25
2018-08-10T01:42:20.622Z,101123.33
2018-08-10T01:43:26.060Z,101127.18
2018-08-10T01:44:31.674Z,101131.44
2018-08-10T01:45:37.244Z,101139.08
2018-08-10T01:46:42.737Z,101129.44
2018-08-10T01:47:48.185Z,101132.91
2018-08-10T01:48:53.704Z,101130.14
2018-08-10T01:49:59.181Z,101133.83
2018-08-10T01:51:05.068Z,101135.59
2018-08-10T01:52:10.548Z,101137.66
2018-08-10T01:53:15.970Z,101137.25
2018-08-10T01:54:21.441Z,101137.59
2018-08-10T01:55:26.884Z,101139.72
2018-08-10T01:56:32.594Z,101143.35
2018-08-10T01:57:39.032Z,101145.16
2018-08-10T01:58:44.545Z,101144.64
2018-08-10T01:59:50.060Z,101144.24
2018-08-10T02:00:55.510Z,101147.75
2018-08-10T02:02:01.449Z,101149.94
2018-08-10T02:03:07.768Z,101152.93
2018-08-10T02:04:13.265Z,101150.12
2018-08-10T02:05:18.888Z,101144.89
2018-08-10T02:06:24.396Z,101155.42
2018-08-10T02:07:30.079Z,101157.77
2018-08-10T02:08:35.624Z,101157.83
2018-08-10T02:09:41.064Z,101154.94
2018-08-10T02:10:46.532Z,101162.36
2018-08-10T02:11:52.445Z,101164.63
2018-08-10T02:12:58.690Z,101170.64
2018-08-10T02:14:04.493Z,101170.12
2018-08-10T02:15:13.759Z,101168.94
2018-08-10T02:16:19.160Z,101165.21
2018-08-10T02:17:24.597Z,101168.63
2018-08-10T02:18:30.101Z,101173.80
2018-08-10T02:19:35.872Z,101169.87
2018-08-10T02:20:41.453Z,101174.98
2018-08-10T02:21:47.009Z,101176.64
2018-08-10T02:22:52.587Z,101177.88
2018-08-10T02:23:58.286Z,101179.87
2018-08-10T02:25:04.424Z,101182.59
2018-08-10T02:26:09.991Z,101179.70
2018-08-10T02:27:15.459Z,101181.05
2018-08-10T02:28:20.978Z,101183.63
2018-08-10T02:29:26.617Z,101189.21
2018-08-10T02:30:32.568Z,101190.36
2018-08-10T02:31:38.194Z,101190.80
2018-08-10T02:32:44.438Z,101192.38
2018-08-10T02:33:49.894Z,101194.68
2018-08-10T02:34:55.310Z,101199.66
2018-08-10T02:36:00.822Z,101202.33
2018-08-10T02:37:06.438Z,101205.29
2018-08-10T02:38:11.902Z,101206.13
2018-08-10T02:39:17.320Z,101210.52
2018-08-10T02:40:23.681Z,101216.56
2018-08-10T02:41:29.434Z,101217.05
2018-08-10T02:42:35.332Z,101219.14
2018-08-10T02:43:40.785Z,101217.16
2018-08-10T02:44:46.184Z,101222.16
2018-08-10T02:45:51.673Z,101223.22
2018-08-10T02:46:57.088Z,101216.29
2018-08-10T02:48:02.921Z,101227.03
2018-08-10T02:49:08.806Z,101233.77
2018-08-10T02:50:14.377Z,101230.60
2018-08-10T02:51:19.893Z,101237.48
2018-08-10T02:52:25.656Z,101239.09
2018-08-10T02:53:31.652Z,101231.19
2018-08-10T02:54:37.237Z,101238.19
2018-08-10T02:55:42.633Z,101237.36
2018-08-10T02:56:48.184Z,101242.72
2018-08-10T02:57:53.673Z,101235.80
2018-08-10T02:58:59.220Z,101243.20
2018-08-10T03:00:06.069Z,101239.47
2018-08-10T03:01:11.705Z,101244.28
2018-08-10T03:02:17.572Z,101253.11
2018-08-10T03:03:23.054Z,101253.52
2018-08-10T03:04:28.542Z,101244.34
2018-08-10T03:05:33.996Z,101256.61
2018-08-10T03:06:39.453Z,101250.94
2018-08-10T03:07:45.601Z,101257.86
2018-08-10T03:08:51.592Z,101258.98
2018-08-10T03:09:56.998Z,101266.06
2018-08-10T03:11:02.757Z,101264.16
2018-08-10T03:12:09.505Z,101276.34
2018-08-10T03:13:15.027Z,101272.80
2018-08-10T03:14:20.501Z,101275.38
2018-08-10T03:15:26.002Z,101278.20
2018-08-10T03:16:31.472Z,101280.94
2018-08-10T03:17:37.056Z,101284.30
2018-08-10T03:18:42.553Z,101283.80
2018-08-10T03:19:48.066Z,101293.70
2018-08-10T03:20:53.501Z,101290.25
2018-08-10T03:21:59.044Z,101297.45
2018-08-10T03:23:05.017Z,101295.17
2018-08-10T03:24:10.420Z,101298.86
2018-08-10T03:25:15.917Z,101305.00
2018-08-10T03:26:21.418Z,101310.89
2018-08-10T03:27:26.887Z,101309.36
2018-08-10T03:28:32.417Z,101305.02
2018-08-10T03:29:38.013Z,101313.75
2018-08-10T03:30:43.508Z,101313.34
2018-08-10T03:31:49.086Z,101323.36
2018-08-10T03:32:54.589Z,101323.45
2018-08-10T03:34:00.052Z,101324.33
2018-08-10T03:35:06.014Z,101334.20
2018-08-10T03:36:11.481Z,101332.91
2018-08-10T03:37:17.634Z,101333.42
2018-08-10T03:38:23.008Z,101335.55
2018-08-10T03:39:28.451Z,101339.10
2018-08-10T03:40:34.061Z,101343.53
2018-08-10T03:41:39.596Z,101341.70
2018-08-10T03:42:45.032Z,101346.83
2018-08-10T03:43:50.506Z,101348.53
2018-08-10T03:44:56.060Z,101352.05
2018-08-10T03:46:01.641Z,101355.59
2018-08-10T03:47:07.628Z,101359.47
2018-08-10T03:48:13.104Z,101359.89
2018-08-10T03:49:18.818Z,101363.67
2018-08-10T03:50:24.282Z,101371.84
2018-08-10T03:51:29.801Z,101365.70
2018-08-10T03:52:36.090Z,101370.45
2018-08-10T03:53:41.562Z,101380.28
2018-08-10T03:54:47.013Z,101371.93
2018-08-10T03:55:52.417Z,101384.34
2018-08-10T03:56:57.961Z,101381.77
2018-08-10T03:58:03.929Z,101389.19
2018-08-10T03:59:10.299Z,101386.97
2018-08-10T04:00:15.718Z,101397.27
2018-08-10T04:01:21.185Z,101398.45
2018-08-10T04:02:26.637Z,101399.02
2018-08-10T04:03:32.501Z,101399.56
2018-08-10T04:04:38.645Z,101394.81
2018-08-10T04:05:44.041Z,101395.09
2018-08-10T04:06:49.521Z,101401.45
2018-08-10T04:07:54.963Z,101395.05
2018-08-10T04:09:00.835Z,101406.08
2018-08-10T04:10:08.053Z,101411.65
2018-08-10T04:11:13.529Z,101407.41
2018-08-10T04:12:18.966Z,101407.46
2018-08-10T04:13:24.455Z,101408.38
2018-08-10T04:14:29.956Z,101407.41
2018-08-10T04:15:35.540Z,101412.44
2018-08-10T04:16:41.073Z,101415.86
2018-08-10T04:17:46.553Z,101411.98
2018-08-10T04:18:52.097Z,101417.94
2018-08-10T04:19:57.565Z,101414.16
2018-08-10T04:21:03.187Z,101420.88
2018-08-10T04:22:09.212Z,101419.02
2018-08-10T04:23:14.661Z,101412.66
2018-08-10T04:24:20.217Z,101415.70
2018-08-10T04:25:25.714Z,101417.63
2018-08-10T04:26:31.320Z,101418.04
2018-08-10T04:27:36.846Z,101416.75
2018-08-10T04:28:42.312Z,101420.13
2018-08-10T04:29:47.832Z,101416.60
2018-08-10T04:30:53.549Z,101420.80
2018-08-10T04:31:59.052Z,101426.26
2018-08-10T04:33:04.608Z,101432.72
2018-08-10T04:34:10.025Z,101433.03
2018-08-10T04:35:15.504Z,101440.11
2018-08-10T04:36:20.972Z,101436.09
2018-08-10T04:37:26.465Z,101431.34
2018-08-10T04:38:32.114Z,101436.84
2018-08-10T04:39:37.609Z,101433.70
2018-08-10T04:40:43.100Z,101440.86
2018-08-10T04:41:48.600Z,101439.02
2018-08-10T04:42:54.079Z,101442.67
2018-08-10T04:43:59.600Z,101443.87
2018-08-10T04:45:05.808Z,101448.13
2018-08-10T04:46:11.328Z,101446.97
2018-08-10T04:47:16.797Z,101452.04
2018-08-10T04:48:22.325Z,101456.25
2018-08-10T04:49:27.973Z,101454.91
2018-08-10T04:50:34.249Z,101459.80
2018-08-10T04:51:40.094Z,101458.05
2018-08-10T04:52:45.568Z,101462.70
2018-08-10T04:53:50.997Z,101465.93
2018-08-10T04:54:56.466Z,101466.35
2018-08-10T04:56:02.045Z,101468.52
2018-08-10T04:57:08.286Z,101466.91
2018-08-10T04:58:13.753Z,101469.20
2018-08-10T04:59:19.198Z,101468.20
2018-08-10T05:00:24.629Z,101472.39
2018-08-10T05:01:30.058Z,101475.91
2018-08-10T05:02:35.796Z,101476.31
2018-08-10T05:03:41.256Z,101479.14
2018-08-10T05:04:47.168Z,101481.48
2018-08-10T05:05:52.635Z,101481.94
2018-08-10T05:06:59.401Z,101489.59
2018-08-10T05:08:04.909Z,101485.72
2018-08-10T05:09:12.880Z,101485.27
2018-08-10T05:10:18.386Z,101489.09
2018-08-10T05:11:23.826Z,101487.25
2018-08-10T05:12:29.276Z,101489.00
2018-08-10T05:13:34.713Z,101498.61
2018-08-10T05:14:40.129Z,101493.78
2018-08-10T05:15:45.684Z,101494.92
2018-08-10T05:16:51.058Z,101500.70
2018-08-10T05:17:56.479Z,101494.14
2018-08-10T05:19:01.902Z,101493.08
2018-08-10T05:20:08.822Z,101500.28
2018-08-10T05:21:14.342Z,101506.75
2018-08-10T05:22:19.773Z,101502.73
2018-08-10T05:23:25.253Z,101506.52
2018-08-10T05:24:30.819Z,101510.25
2018-08-10T05:25:36.315Z,101507.95
2018-08-10T05:26:41.733Z,101508.69
2018-08-10T05:27:47.273Z,101509.61
2018-08-10T05:28:52.774Z,101506.06
2018-08-10T05:29:58.273Z,101511.46
2018-08-10T05:31:04.236Z,101513.94
2018-08-10T05:32:09.866Z,101517.05
2018-08-10T05:33:15.353Z,101514.41
2018-08-10T05:34:20.913Z,101516.06
2018-08-10T05:35:26.392Z,101512.52
2018-08-10T05:36:31.929Z,101512.25
2018-08-10T05:37:37.496Z,101516.68
2018-08-10T05:38:42.993Z,101522.67
2018-08-10T05:39:48.440Z,101521.64
2018-08-10T05:40:53.924Z,101528.90
2018-08-10T05:41:59.442Z,101524.66
2018-08-10T05:43:04.924Z,101526.77
2018-08-10T05:44:10.520Z,101527.05
2018-08-10T05:45:15.906Z,101525.48
2018-08-10T05:46:21.399Z,101527.98
2018-08-10T05:47:26.857Z,101530.23
2018-08-10T05:48:39.620Z,101540.17
2018-08-10T05:49:45.046Z,101536.66
2018-08-10T05:50:50.548Z,101527.73
2018-08-10T05:51:55.927Z,101526.86
2018-08-10T05:53:02.011Z,101528.35
2018-08-10T05:54:08.221Z,101535.28
2018-08-10T05:55:13.678Z,101535.78
2018-08-10T05:56:19.171Z,101526.27
2018-08-10T05:57:24.588Z,101535.05
2018-08-10T05:58:30.299Z,101529.27
2018-08-10T05:59:36.012Z,101528.03
2018-08-10T06:00:41.572Z,101528.16
2018-08-10T06:01:46.961Z,101537.44
2018-08-10T06:02:52.380Z,101535.73
2018-08-10T06:03:58.434Z,101536.33
2018-08-10T06:05:03.888Z,101537.44
2018-08-10T06:06:09.391Z,101539.88
2018-08-10T06:07:15.552Z,101536.93
2018-08-10T06:08:20.928Z,101544.27
2018-08-10T06:09:26.446Z,101546.72
2018-08-10T06:10:32.181Z,101548.83
2018-08-10T06:11:37.893Z,101550.50
2018-08-10T06:12:43.324Z,101556.04
2018-08-10T06:13:48.760Z,101559.97
2018-08-10T06:14:54.249Z,101559.28
2018-08-10T06:15:59.803Z,101557.83
2018-08-10T06:17:05.620Z,101561.11
2018-08-10T06:18:11.052Z,101568.17
2018-08-10T06:19:16.452Z,101566.50
2018-08-10T06:20:21.935Z,101564.29
2018-08-10T06:21:27.459Z,101569.27
2018-08-10T06:22:32.976Z,101568.19
2018-08-10T06:23:38.459Z,101572.70
2018-08-10T06:24:43.865Z,101573.03
2018-08-10T06:25:49.266Z,101571.16
2018-08-10T06:26:54.704Z,101569.96
2018-08-10T06:28:00.177Z,101574.44
2018-08-10T06:29:05.751Z,101570.91
2018-08-10T06:30:12.682Z,101571.84
2018-08-10T06:31:18.121Z,101572.36
2018-08-10T06:32:23.532Z,101569.96
2018-08-10T06:33:28.982Z,101571.53
2018-08-10T06:34:34.432Z,101573.60
2018-08-10T06:35:39.833Z,101578.48
2018-08-10T06:36:45.237Z,101571.79
2018-08-10T06:37:50.769Z,101572.72
2018-08-10T06:38:56.986Z,101576.83
2018-08-10T06:40:02.869Z,101575.22
2018-08-10T06:41:08.340Z,101572.78
2018-08-10T06:42:13.784Z,101580.66
2018-08-10T06:43:19.249Z,101576.09
2018-08-10T06:44:25.205Z,101581.84
2018-08-10T06:45:30.644Z,101578.67
2018-08-10T06:46:36.222Z,101584.28
2018-08-10T06:47:41.614Z,101582.83
2018-08-10T06:48:46.985Z,101580.44
2018-08-10T06:49:52.421Z,101580.23
2018-08-10T06:50:57.836Z,101582.00
2018-08-10T06:52:03.463Z,101583.14
2018-08-10T06:53:09.066Z,101581.68
2018-08-10T06:54:14.544Z,101581.77
2018-08-10T06:55:19.989Z,101584.22
2018-08-10T06:56:26.060Z,101580.73
2018-08-10T06:57:31.560Z,101583.84
2018-08-10T06:58:37.211Z,101584.02
2018-08-10T06:59:42.668Z,101584.73
2018-08-10T07:00:48.196Z,101584.42
2018-08-10T07:01:53.611Z,101584.77
2018-08-10T07:02:59.052Z,101589.49
2018-08-10T07:04:04.808Z,101585.86
2018-08-10T07:05:10.298Z,101586.05
2018-08-10T07:06:15.792Z,101594.70
2018-08-10T07:07:21.361Z,101594.56
2018-08-10T07:08:26.804Z,101594.77
2018-08-10T07:09:32.803Z,101591.82
2018-08-10T07:10:38.484Z,101597.09
2018-08-10T07:11:43.921Z,101603.38
2018-08-10T07:12:49.395Z,101603.09
2018-08-10T07:13:54.786Z,101609.60
2018-08-10T07:15:00.285Z,101606.73
2018-08-10T07:16:06.171Z,101612.05
2018-08-10T07:17:11.607Z,101610.95
2018-08-10T07:18:17.049Z,101607.93
2018-08-10T07:19:22.572Z,101613.12
2018-08-10T07:20:28.069Z,101613.35
2018-08-10T07:21:33.613Z,101616.09
2018-08-10T07:22:39.065Z,101615.97
2018-08-10T07:23:44.464Z,101619.08
2018-08-10T07:24:49.968Z,101617.02
2018-08-10T07:25:55.461Z,101620.45
2018-08-10T07:27:01.121Z,101620.33
2018-08-10T07:28:06.650Z,101609.42
2018-08-10T07:29:12.053Z,101614.80
2018-08-10T07:30:17.574Z,101620.01
2018-08-10T07:31:23.040Z,101619.20
2018-08-10T07:32:28.514Z,101620.63
2018-08-10T07:33:33.992Z,101620.63
2018-08-10T07:34:39.409Z,101627.41
2018-08-10T07:35:44.965Z,101625.36
2018-08-10T07:36:50.436Z,101621.59
2018-08-10T07:37:55.895Z,101620.41
2018-08-10T07:39:01.313Z,101621.58
2018-08-10T07:40:06.721Z,101617.31
2018-08-10T07:41:12.177Z,101627.45
2018-08-10T07:42:17.684Z,101618.22
2018-08-10T07:43:23.201Z,101627.25
2018-08-10T07:44:28.665Z,101625.48
2018-08-10T07:45:34.097Z,101626.19
2018-08-10T07:46:39.973Z,101628.08
2018-08-10T07:47:45.372Z,101628.14
2018-08-10T07:48:50.936Z,101629.28
2018-08-10T07:49:56.361Z,101637.08
2018-08-10T07:51:01.769Z,101632.47
2018-08-10T07:52:07.796Z,101628.75
2018-08-10T07:53:13.202Z,101632.70
2018-08-10T07:54:18.608Z,101634.84
2018-08-10T07:55:24.017Z,101628.52
2018-08-10T07:56:29.416Z,101636.02
2018-08-10T07:57:34.902Z,101634.06
2018-08-10T07:58:40.365Z,101628.28
2018-08-10T07:59:45.870Z,101629.27
2018-08-10T08:00:51.342Z,101622.30
2018-08-10T08:01:56.820Z,101617.34
2018-08-10T08:03:02.772Z,101628.38
2018-08-10T08:04:09.205Z,101626.06
2018-08-10T08:05:14.744Z,101633.27
2018-08-10T08:06:20.426Z,101632.14
2018-08-10T08:07:25.892Z,101627.11
2018-08-10T08:08:31.470Z,101621.44
2018-08-10T08:09:37.224Z,101626.81
2018-08-10T08:10:44.017Z,101624.14
2018-08-10T08:11:49.569Z,101624.88
2018-08-10T08:12:54.956Z,101625.28
2018-08-10T08:14:00.543Z,101617.01
2018-08-10T08:15:06.806Z,101619.27
2018-08-10T08:16:13.730Z,101619.27
2018-08-10T08:17:19.426Z,101623.55
2018-08-10T08:18:24.873Z,101621.58
2018-08-10T08:19:30.437Z,101617.91
2018-08-10T08:20:37.471Z,101621.41
2018-08-10T08:21:57.954Z,101623.33
2018-08-10T08:23:05.141Z,101621.83
2018-08-10T08:24:12.205Z,101622.26
2018-08-10T08:25:17.652Z,101627.30
2018-08-10T08:26:23.147Z,101622.03
2018-08-10T08:27:28.997Z,101626.87
2018-08-10T08:28:35.226Z,101629.97
2018-08-10T08:29:40.661Z,101621.83
2018-08-10T08:30:46.184Z,101623.66
2018-08-10T08:31:51.678Z,101638.20
2018-08-10T08:32:57.270Z,101629.95
2018-08-10T08:34:06.727Z,101635.89
2018-08-10T08:35:12.389Z,101626.41
2018-08-10T08:36:17.800Z,101628.58
2018-08-10T08:37:23.241Z,101633.33
2018-08-10T08:38:45.736Z,101632.80
2018-08-10T08:40:26.221Z,101619.73
2018-08-10T08:41:32.064Z,101634.19
2018-08-10T08:42:37.587Z,101628.52
2018-08-10T08:45:59.384Z,101621.19
2018-08-10T08:47:06.187Z,101633.13
2018-08-10T08:48:12.006Z,101633.88
2018-08-10T08:49:17.420Z,101643.15
2018-08-10T08:50:22.894Z,101638.59
2018-08-10T08:51:28.449Z,101632.98
2018-08-10T08:52:34.218Z,101638.23
2018-08-10T08:53:39.776Z,101633.27
2018-08-10T08:55:27.220Z,101634.22
2018-08-10T08:56:43.962Z,101638.48
2018-08-10T08:57:49.465Z,101638.12
2018-08-10T08:58:54.938Z,101639.35
2018-08-10T09:00:00.525Z,101638.16
2018-08-10T09:01:07.736Z,101629.59
2018-08-10T09:02:13.398Z,101633.42
2018-08-10T09:03:36.241Z,101634.80
2018-08-10T09:05:04.067Z,101634.64
2018-08-10T09:06:09.730Z,101629.44
2018-08-10T09:07:15.219Z,101633.74
2018-08-10T09:08:20.712Z,101639.09
2018-08-10T09:09:38.742Z,101630.78
2018-08-10T09:10:44.454Z,101634.90
2018-08-10T09:11:49.889Z,101634.50
2018-08-10T09:12:55.432Z,101636.13
2018-08-10T09:14:49.872Z,101630.32
2018-08-10T09:15:55.709Z,101625.28
2018-08-10T09:17:01.264Z,101627.70
2018-08-10T09:18:06.909Z,101624.32
2018-08-10T09:19:12.416Z,101630.89
2018-08-10T09:20:18.061Z,101624.58
2018-08-10T09:21:23.454Z,101622.71
2018-08-10T09:22:29.494Z,101626.47
2018-08-10T09:23:35.001Z,101630.50
2018-08-10T09:24:41.222Z,101631.10
2018-08-10T09:25:46.779Z,101629.85
2018-08-10T09:26:52.268Z,101634.59
2018-08-10T09:27:57.656Z,101636.77
2018-08-10T09:29:03.092Z,101640.92
2018-08-10T09:30:12.408Z,101629.70
2018-08-10T09:31:17.844Z,101634.18
2018-08-10T09:32:23.368Z,101637.98
2018-08-10T09:33:28.808Z,101637.34
2018-08-10T09:34:34.290Z,101627.08
2018-08-10T09:35:40.113Z,101634.36
2018-08-10T09:36:45.590Z,101636.52
2018-08-10T09:37:51.116Z,101635.07
2018-08-10T09:38:56.566Z,101633.64
2018-08-10T09:40:02.003Z,101633.39
2018-08-10T09:41:07.933Z,101635.08
2018-08-10T09:42:13.542Z,101645.36
2018-08-10T09:43:18.992Z,101634.80
2018-08-10T09:44:24.433Z,101628.38
2018-08-10T09:45:29.923Z,101631.98
2018-08-10T09:46:35.373Z,101634.23
2018-08-10T09:47:41.350Z,101636.92
2018-08-10T09:48:46.813Z,101637.48
2018-08-10T09:49:52.329Z,101640.69
2018-08-10T09:50:57.773Z,101636.63
2018-08-10T09:52:03.392Z,101628.30
2018-08-10T09:53:08.893Z,101632.95
2018-08-10T09:54:14.464Z,101633.36
2018-08-10T09:55:22.798Z,101628.78
2018-08-10T09:56:28.265Z,101635.75
2018-08-10T09:57:33.729Z,101642.78
2018-08-10T09:58:39.209Z,101634.03
2018-08-10T09:59:44.780Z,101638.61
2018-08-10T10:00:55.191Z,101639.63
2018-08-10T10:02:05.937Z,101637.55
2018-08-10T10:03:19.252Z,101631.03
2018-08-10T10:04:24.700Z,101634.97
2018-08-10T10:05:30.376Z,101633.19
2018-08-10T10:06:35.958Z,101637.36
2018-08-10T10:07:41.777Z,101640.63
2018-08-10T10:08:47.761Z,101641.08
2018-08-10T10:09:53.201Z,101641.46
2018-08-10T10:10:58.716Z,101642.76
2018-08-10T10:12:04.180Z,101630.48
2018-08-10T10:13:10.110Z,101638.44
2018-08-10T10:14:15.556Z,101645.16
2018-08-10T10:15:21.536Z,101645.38
2018-08-10T10:16:26.985Z,101648.98
2018-08-10T10:17:32.488Z,101643.86
2018-08-10T10:18:38.417Z,101646.87
2018-08-10T10:19:44.222Z,101642.54
2018-08-10T10:20:49.808Z,101649.08
2018-08-10T10:21:55.306Z,101640.30
2018-08-10T10:23:00.866Z,101649.37
2018-08-10T10:24:09.873Z,101650.58
2018-08-10T10:25:15.461Z,101654.98
2018-08-10T10:26:20.949Z,101647.52
2018-08-10T10:27:26.657Z,101651.53
2018-08-10T10:28:32.138Z,101647.95
2018-08-10T10:29:38.143Z,101657.75
2018-08-10T10:30:43.812Z,101659.35
2018-08-10T10:31:49.325Z,101652.55
2018-08-10T10:32:54.785Z,101659.37
2018-08-10T10:34:00.273Z,101662.91
2018-08-10T10:35:06.840Z,101657.23
2018-08-10T10:36:12.512Z,101662.00
2018-08-10T10:37:17.966Z,101663.78
2018-08-10T10:38:23.451Z,101659.77
2018-08-10T10:39:28.960Z,101655.35
2018-08-10T10:40:34.802Z,101662.02
2018-08-10T10:41:40.484Z,101657.15
2018-08-10T10:42:45.964Z,101660.45
2018-08-10T10:43:51.421Z,101661.98
2018-08-10T10:44:56.920Z,101660.24
2018-08-10T10:46:02.434Z,101664.34
2018-08-10T10:47:08.245Z,101660.98
2018-08-10T10:48:13.757Z,101658.55
2018-08-10T10:49:19.157Z,101665.83
2018-08-10T10:50:24.946Z,101661.17
2018-08-10T10:51:30.378Z,101660.99
2018-08-10T10:52:36.418Z,101655.45
2018-08-10T10:53:41.940Z,101666.40
2018-08-10T10:54:47.414Z,101669.84
2018-08-10T10:55:52.903Z,101665.44
2018-08-10T10:56:58.483Z,101672.62
2018-08-10T10:58:03.945Z,101678.26
2018-08-10T10:59:09.737Z,101673.44
2018-08-10T11:00:20.301Z,101672.41
2018-08-10T11:01:25.770Z,101665.17
2018-08-10T11:02:31.233Z,101664.70
2018-08-10T11:03:36.849Z,101672.00
2018-08-10T11:04:42.356Z,101667.70
2018-08-10T11:05:48.372Z,101667.93
2018-08-10T11:06:53.817Z,101672.30
2018-08-10T11:07:59.229Z,101676.88
2018-08-10T11:09:06.497Z,101674.61
2018-08-10T11:10:13.695Z,101674.23
2018-08-10T11:11:19.146Z,101672.82
2018-08-10T11:12:24.564Z,101669.66
2018-08-10T11:13:30.052Z,101673.88
2018-08-10T11:14:35.761Z,101663.75
2018-08-10T11:15:41.213Z,101664.23
2018-08-10T11:16:46.712Z,101662.22
2018-08-10T11:17:52.188Z,101680.23
2018-08-10T11:18:57.652Z,101680.67
2018-08-10T11:20:03.152Z,101667.48
2018-08-10T11:21:08.670Z,101664.39
2018-08-10T11:22:14.203Z,101666.86
2018-08-10T11:23:19.725Z,101663.63
2018-08-10T11:24:25.238Z,101659.80
2018-08-10T11:25:30.794Z,101662.28
2018-08-10T11:26:36.611Z,101662.28
2018-08-10T11:27:42.846Z,101661.61
2018-08-10T11:28:48.323Z,101659.53
2018-08-10T11:29:53.795Z,101669.25
2018-08-10T11:31:01.260Z,101665.58
2018-08-10T11:32:06.852Z,101665.39
2018-08-10T11:33:12.313Z,101668.74
2018-08-10T11:34:17.752Z,101663.19
2018-08-10T11:35:23.251Z,101672.02
2018-08-10T11:36:28.978Z,101677.22
2018-08-10T11:37:34.628Z,101671.98
2018-08-10T11:38:40.158Z,101669.77
2018-08-10T11:39:45.712Z,101665.44
2018-08-10T11:40:51.172Z,101666.63
2018-08-10T11:41:56.681Z,101660.67
2018-08-10T11:43:02.145Z,101671.77
2018-08-10T11:44:08.052Z,101668.71
2018-08-10T11:45:15.708Z,101670.76
2018-08-10T11:46:21.277Z,101669.93
2018-08-10T11:47:26.833Z,101663.41
2018-08-10T11:48:32.245Z,101662.84
2018-08-10T11:49:38.572Z,101659.34
2018-08-10T11:50:43.993Z,101672.38
2018-08-10T11:51:49.424Z,101662.79
2018-08-10T11:52:55.308Z,101658.52
2018-08-10T11:54:00.924Z,101660.92
2018-08-10T11:55:07.717Z,101666.01
2018-08-10T11:56:13.390Z,101669.69
2018-08-10T11:57:18.847Z,101664.01
2018-08-10T11:58:24.814Z,101667.52
2018-08-10T11:59:30.322Z,101661.42
2018-08-10T12:00:35.721Z,101660.08
2018-08-10T12:01:41.714Z,101664.59
2018-08-10T12:02:47.154Z,101664.77
2018-08-10T12:03:53.059Z,101662.14
2018-08-10T12:04:58.505Z,101653.57
2018-08-10T12:06:04.189Z,101654.88
2018-08-10T12:07:09.501Z,101658.76
2018-08-10T12:08:14.980Z,101658.34
2018-08-10T12:09:20.565Z,101653.98
2018-08-10T12:10:26.025Z,101653.31
2018-08-10T12:11:31.504Z,101650.73
2018-08-10T12:12:37.212Z,101643.25
2018-08-10T12:13:42.881Z,101653.20
2018-08-10T12:14:48.422Z,101650.51
2018-08-10T12:15:54.035Z,101654.30
2018-08-10T12:16:59.978Z,101655.86
2018-08-10T12:18:05.752Z,101649.41
2018-08-10T12:19:11.278Z,101656.94
2018-08-10T12:20:17.462Z,101663.60
2018-08-10T12:21:22.916Z,101662.25
2018-08-10T12:22:28.424Z,101670.92
2018-08-10T12:23:33.983Z,101671.30
2018-08-10T12:24:39.556Z,101662.23
2018-08-10T12:25:45.014Z,101661.72
2018-08-10T12:26:50.539Z,101660.23
2018-08-10T12:27:55.964Z,101662.03
2018-08-10T12:29:01.434Z,101660.52
2018-08-10T12:30:09.205Z,101672.68
2018-08-10T12:31:15.081Z,101672.81
2018-08-10T12:32:20.560Z,101672.72
2018-08-10T12:33:26.122Z,101675.47
2018-08-10T12:34:31.881Z,101678.30
2018-08-10T12:35:37.613Z,101679.06